Terminal Aerodrome Forecast
Issued by NWS

Home | Current Version | Previous Version | Text Only | Print | Product List | Glossary On
Versions: 1 2 3 4 5 6 7 8 9 10 11 12 13 14 15 16 17 18 19 20 21 22
685
FTUS42 TJSJ 241721
TAFIST
TAF
TIST 241721Z 2418/2518 11006KT P6SM VCSH FEW020 SCT045 BKN060
     FM242300 12008KT P6SM VCSH SCT022 SCT045 BKN090
     FM250800 12004KT P6SM VCSH BKN023 OVC050
     FM251400 13008KT P6SM VCSH SCT024 SCT050 BKN090=

USA.gov is the U.S. government's official web portal to all federal, state and local government web resources and services.